createdAt,value
2022-11-19T00:00:14.351Z,32.30
2022-11-19T00:03:01.464Z,30.90
2022-11-19T00:05:29.211Z,28.50
2022-11-19T00:07:57.050Z,23.80
2022-11-19T00:10:24.792Z,22.90
2022-11-19T00:12:55.550Z,24.50
2022-11-19T00:15:23.739Z,20.40
2022-11-19T00:17:51.362Z,21.30
2022-11-19T00:20:19.258Z,30.90
2022-11-19T00:22:51.253Z,30.80
2022-11-19T00:25:19.661Z,26.50
2022-11-19T00:27:47.382Z,29.10
2022-11-19T00:30:40.616Z,29.10
2022-11-19T00:33:03.542Z,24.80
2022-11-19T00:35:35.222Z,18.90
2022-11-19T00:38:03.015Z,18.80
2022-11-19T00:40:30.811Z,26.20
2022-11-19T00:43:17.589Z,31.40
2022-11-19T00:45:45.439Z,25.50
2022-11-19T00:48:13.186Z,23.00
2022-11-19T00:50:42.101Z,26.70
2022-11-19T00:53:09.767Z,29.90
2022-11-19T00:55:37.978Z,33.10
2022-11-19T00:58:05.700Z,24.20
2022-11-19T01:00:33.373Z,21.30
2022-11-19T01:03:08.119Z,24.60
2022-11-19T01:05:35.859Z,21.70
2022-11-19T01:08:03.917Z,40.60
2022-11-19T01:10:33.717Z,27.70
2022-11-19T01:13:21.355Z,35.50
2022-11-19T01:15:50.031Z,25.20
2022-11-19T01:18:18.545Z,40.20
2022-11-19T01:20:46.283Z,37.50
2022-11-19T01:23:14.418Z,41.90
2022-11-19T01:25:42.274Z,47.90
2022-11-19T01:28:09.987Z,44.60
2022-11-19T01:30:39.928Z,32.20
2022-11-19T01:33:07.917Z,32.60
2022-11-19T01:35:35.766Z,30.30
2022-11-19T01:38:04.139Z,36.80
2022-11-19T01:40:32.617Z,45.20
2022-11-19T01:43:00.347Z,37.30
2022-11-19T01:45:35.889Z,37.80
2022-11-19T01:48:13.589Z,31.30
2022-11-19T01:50:44.162Z,31.50
2022-11-19T01:53:13.490Z,29.70
2022-11-19T01:55:42.619Z,33.90
2022-11-19T01:58:11.864Z,30.60
2022-11-19T02:00:39.749Z,32.60
2022-11-19T02:03:07.491Z,31.00
2022-11-19T02:05:42.408Z,33.50
2022-11-19T02:08:30.156Z,38.50
2022-11-19T02:11:16.448Z,33.40
2022-11-19T02:14:03.224Z,26.50
2022-11-19T02:16:37.094Z,36.50
2022-11-19T02:19:23.586Z,35.80
2022-11-19T02:22:10.034Z,32.10
2022-11-19T02:24:54.071Z,33.10
2022-11-19T02:27:37.446Z,33.50
2022-11-19T02:30:06.647Z,34.00
2022-11-19T02:32:44.316Z,31.70
2022-11-19T02:35:38.445Z,36.80
2022-11-19T02:38:13.670Z,29.70
2022-11-19T02:40:50.967Z,30.60
2022-11-19T02:43:24.689Z,36.70
2022-11-19T02:46:03.313Z,29.60
2022-11-19T02:48:31.033Z,31.50
2022-11-19T02:51:00.663Z,28.50
2022-11-19T02:53:32.801Z,30.90
2022-11-19T02:56:11.736Z,27.30
2022-11-19T02:59:10.001Z,29.10
2022-11-19T03:01:59.349Z,44.70
2022-11-19T03:04:30.975Z,32.10
2022-11-19T03:07:08.899Z,27.10
2022-11-19T03:09:42.679Z,29.90
2022-11-19T03:12:23.272Z,39.20
2022-11-19T03:15:13.219Z,27.60
2022-11-19T03:17:40.869Z,27.40
2022-11-19T03:20:21.382Z,30.90
2022-11-19T03:22:55.414Z,27.00
2022-11-19T03:25:27.122Z,27.60
2022-11-19T03:27:58.696Z,25.40
2022-11-19T03:30:27.497Z,32.10
2022-11-19T03:33:00.965Z,30.20
2022-11-19T03:35:31.841Z,29.10
2022-11-19T03:38:01.575Z,30.10
2022-11-19T03:40:31.200Z,36.00
2022-11-19T03:43:07.868Z,41.40
2022-11-19T03:45:41.282Z,33.00
2022-11-19T03:48:10.001Z,42.30
2022-11-19T03:50:37.731Z,32.90
2022-11-19T03:53:05.499Z,41.40
2022-11-19T03:55:35.506Z,46.10
2022-11-19T03:58:04.211Z,47.20
2022-11-19T04:00:32.911Z,37.10
2022-11-19T04:03:00.984Z,29.40
2022-11-19T04:05:28.705Z,30.80
2022-11-19T04:08:02.869Z,29.80
2022-11-19T04:10:30.653Z,30.00
2022-11-19T04:12:58.942Z,30.00
2022-11-19T04:15:30.589Z,35.00
2022-11-19T04:17:58.306Z,41.20
2022-11-19T04:20:26.161Z,40.80
2022-11-19T04:22:53.935Z,40.80
2022-11-19T04:25:21.698Z,48.10
2022-11-19T04:27:49.469Z,39.40
2022-11-19T04:30:17.390Z,41.20
2022-11-19T04:32:45.217Z,45.10
2022-11-19T04:35:14.259Z,44.30
2022-11-19T04:37:41.958Z,33.30
2022-11-19T04:40:09.966Z,37.60
2022-11-19T04:42:37.762Z,37.70
2022-11-19T04:45:06.186Z,44.30
2022-11-19T04:47:34.050Z,36.30
2022-11-19T04:50:01.980Z,39.80
2022-11-19T04:52:34.091Z,42.80
2022-11-19T04:55:04.445Z,46.60
2022-11-19T04:57:32.711Z,42.40
2022-11-19T05:00:00.554Z,34.40
2022-11-19T05:02:28.294Z,35.00
2022-11-19T05:04:56.156Z,37.80
2022-11-19T05:07:24.045Z,35.50
2022-11-19T05:09:51.744Z,40.80
2022-11-19T05:12:19.568Z,46.80
2022-11-19T05:14:47.449Z,36.70
2022-11-19T05:17:15.080Z,47.80
2022-11-19T05:19:42.923Z,42.60
2022-11-19T05:22:10.715Z,49.50
2022-11-19T05:24:38.412Z,46.30
2022-11-19T05:27:06.094Z,45.90
2022-11-19T05:29:33.757Z,40.00
2022-11-19T05:32:01.714Z,39.70
2022-11-19T05:34:29.407Z,42.10
2022-11-19T05:36:57.288Z,45.70
2022-11-19T05:39:25.174Z,45.10
2022-11-19T05:41:53.144Z,45.70
2022-11-19T05:44:20.836Z,37.90
2022-11-19T05:46:48.554Z,37.60
2022-11-19T05:49:16.550Z,45.40
2022-11-19T05:51:46.209Z,44.30
2022-11-19T05:54:14.033Z,39.20
2022-11-19T05:56:45.757Z,44.00
2022-11-19T05:59:13.529Z,38.50
2022-11-19T06:01:47.734Z,38.70
2022-11-19T06:04:15.460Z,38.20
2022-11-19T06:06:43.161Z,36.30
2022-11-19T06:09:11.910Z,28.20
2022-11-19T06:11:50.171Z,35.50
2022-11-19T06:14:18.759Z,29.80
2022-11-19T06:16:46.486Z,22.40
2022-11-19T06:19:14.262Z,27.80
2022-11-19T06:21:42.113Z,24.10
2022-11-19T06:24:10.150Z,33.30
2022-11-19T06:26:37.933Z,28.40
2022-11-19T06:29:10.001Z,26.90
2022-11-19T06:31:37.751Z,25.10
2022-11-19T06:34:05.617Z,25.50
2022-11-19T06:36:39.917Z,26.30
2022-11-19T06:39:10.269Z,29.20
2022-11-19T06:41:38.109Z,23.70
2022-11-19T06:44:05.719Z,26.20
2022-11-19T06:46:33.501Z,25.30
2022-11-19T06:49:01.340Z,27.50
2022-11-19T06:51:29.066Z,35.20
2022-11-19T06:53:56.933Z,32.20
2022-11-19T06:56:24.803Z,41.90
2022-11-19T06:58:56.303Z,41.40
2022-11-19T07:01:24.781Z,49.60
2022-11-19T07:03:52.450Z,41.30
2022-11-19T07:06:20.190Z,38.90
2022-11-19T07:08:47.929Z,35.60
2022-11-19T07:11:28.082Z,36.90
2022-11-19T07:13:58.257Z,33.40
2022-11-19T07:16:27.548Z,32.90
2022-11-19T07:18:58.504Z,40.70
2022-11-19T07:21:26.697Z,32.40
2022-11-19T07:23:54.885Z,43.60
2022-11-19T07:26:25.146Z,52.60
2022-11-19T07:28:52.878Z,29.60
2022-11-19T07:31:20.733Z,33.10
2022-11-19T07:33:49.038Z,30.70
2022-11-19T07:36:18.565Z,34.30
2022-11-19T07:38:47.156Z,32.50
2022-11-19T07:41:36.156Z,33.80
2022-11-19T07:44:12.928Z,32.20
2022-11-19T07:46:41.119Z,32.70
2022-11-19T07:49:08.856Z,31.60
2022-11-19T07:51:37.051Z,26.10
2022-11-19T07:54:05.187Z,31.20
2022-11-19T07:56:33.061Z,44.30
2022-11-19T07:59:01.170Z,35.90
2022-11-19T08:01:29.502Z,43.50
2022-11-19T08:03:57.690Z,30.50
2022-11-19T08:06:27.252Z,33.30
2022-11-19T08:09:00.028Z,32.50
2022-11-19T08:11:28.424Z,30.60
2022-11-19T08:13:58.910Z,31.50
2022-11-19T08:16:47.961Z,30.00
2022-11-19T08:19:16.413Z,25.00
2022-11-19T08:21:46.093Z,33.30
2022-11-19T08:24:14.991Z,37.10
2022-11-19T08:26:45.357Z,30.90
2022-11-19T08:29:16.901Z,28.30
2022-11-19T08:31:46.943Z,32.00
2022-11-19T08:34:15.840Z,32.10
2022-11-19T08:36:44.673Z,28.20
2022-11-19T08:39:14.955Z,26.50
2022-11-19T08:42:02.126Z,25.30
2022-11-19T08:44:36.643Z,31.40
2022-11-19T08:47:04.506Z,28.00
2022-11-19T08:49:32.189Z,24.80
2022-11-19T08:52:00.160Z,31.30
2022-11-19T08:54:28.103Z,30.30
2022-11-19T08:56:56.002Z,21.00
2022-11-19T08:59:24.161Z,26.70
2022-11-19T09:01:51.877Z,23.40
2022-11-19T09:04:26.188Z,26.50
2022-11-19T09:06:57.717Z,31.60
2022-11-19T09:09:26.534Z,25.50
2022-11-19T09:11:56.011Z,26.50
2022-11-19T09:14:24.192Z,28.30
2022-11-19T09:16:52.051Z,25.90
2022-11-19T09:19:19.999Z,24.80
2022-11-19T09:21:47.776Z,25.40
2022-11-19T09:24:15.786Z,28.90
2022-11-19T09:26:47.600Z,31.00
2022-11-19T09:29:18.186Z,24.90
2022-11-19T09:31:46.027Z,36.50
2022-11-19T09:34:13.839Z,27.30
2022-11-19T09:36:43.641Z,29.70
2022-11-19T09:39:11.377Z,24.10
2022-11-19T09:42:02.551Z,26.60
2022-11-19T09:44:33.425Z,33.10
2022-11-19T09:47:20.648Z,34.50
2022-11-19T09:49:56.998Z,26.30
2022-11-19T09:52:34.023Z,22.20
2022-11-19T09:55:14.495Z,22.90
2022-11-19T09:57:54.079Z,23.10
2022-11-19T10:00:27.810Z,23.30
2022-11-19T10:02:58.754Z,29.80
2022-11-19T10:05:26.701Z,32.40
2022-11-19T10:08:19.147Z,23.00
2022-11-19T10:10:54.077Z,54.40
2022-11-19T10:13:34.036Z,52.70
2022-11-19T10:16:11.012Z,28.70
2022-11-19T10:18:39.628Z,31.10
2022-11-19T10:21:23.059Z,96.90
2022-11-19T10:23:52.977Z,33.80
2022-11-19T10:26:26.910Z,38.80
2022-11-19T10:28:58.244Z,25.90
2022-11-19T10:31:28.886Z,52.30
2022-11-19T10:33:59.598Z,54.70
2022-11-19T10:36:31.972Z,53.70
2022-11-19T10:39:07.763Z,40.60
2022-11-19T10:41:50.746Z,84.40
2022-11-19T10:44:37.899Z,31.60
2022-11-19T10:47:17.498Z,43.00
2022-11-19T10:49:45.507Z,59.00
2022-11-19T10:52:25.017Z,80.60
2022-11-19T10:54:55.458Z,40.50
2022-11-19T10:57:24.975Z,20.50
2022-11-19T10:59:54.512Z,29.70
2022-11-19T11:02:41.744Z,32.90
2022-11-19T11:05:15.614Z,43.20
2022-11-19T11:10:25.432Z,22.70
2022-11-19T11:13:13.068Z,26.90
2022-11-19T11:15:45.629Z,25.80
2022-11-19T11:18:25.931Z,25.70
2022-11-19T11:20:53.954Z,42.90
2022-11-19T11:23:24.052Z,31.60
2022-11-19T11:26:00.396Z,27.40
2022-11-19T11:28:28.077Z,36.30
2022-11-19T11:31:04.009Z,25.30
2022-11-19T11:33:42.597Z,50.40
2022-11-19T11:36:30.538Z,26.00
2022-11-19T11:39:00.305Z,21.60
2022-11-19T11:42:04.816Z,20.90
2022-11-19T11:44:32.428Z,21.60
2022-11-19T11:47:10.395Z,26.00
2022-11-19T11:49:46.588Z,24.90
2022-11-19T11:52:22.961Z,49.30
2022-11-19T11:55:08.097Z,68.10
2022-11-19T11:57:37.417Z,62.60
2022-11-19T12:00:24.160Z,72.80
2022-11-19T12:03:09.295Z,23.50
2022-11-19T12:05:55.864Z,24.10
2022-11-19T12:08:42.751Z,27.10
2022-11-19T12:11:24.057Z,35.70
2022-11-19T12:13:58.264Z,20.20
2022-11-19T12:16:44.502Z,21.50
2022-11-19T12:19:22.943Z,29.00
2022-11-19T12:35:16.441Z,18.50
2022-11-19T12:38:03.483Z,20.60
2022-11-19T12:40:39.789Z,15.60
2022-11-19T12:43:45.027Z,19.10
2022-11-19T12:46:31.781Z,14.00
2022-11-19T12:49:09.779Z,14.00
2022-11-19T12:51:52.278Z,16.50
2022-11-19T12:54:27.873Z,15.60
2022-11-19T12:57:19.821Z,22.00
2022-11-19T13:00:06.662Z,15.90
2022-11-19T13:02:54.774Z,13.50
2022-11-19T13:05:28.198Z,12.80
2022-11-19T13:07:59.519Z,15.60
2022-11-19T13:10:39.796Z,12.10
2022-11-19T13:13:09.193Z,13.70
2022-11-19T13:15:39.277Z,19.20
2022-11-19T13:18:10.834Z,24.20
2022-11-19T13:20:41.600Z,14.90
2022-11-19T13:23:13.227Z,26.90
2022-11-19T13:25:55.883Z,21.60
2022-11-19T13:28:26.183Z,25.40
2022-11-19T13:30:55.292Z,24.50
2022-11-19T13:33:27.140Z,25.40
2022-11-19T13:36:03.714Z,49.40
2022-11-19T13:38:43.860Z,33.80
2022-11-19T13:41:24.066Z,31.40
2022-11-19T13:44:13.572Z,23.40
2022-11-19T13:46:50.078Z,20.30
2022-11-19T13:49:21.139Z,20.20
2022-11-19T13:51:50.067Z,24.20
2022-11-19T13:54:25.628Z,17.10
2022-11-19T13:56:55.973Z,27.60
2022-11-19T13:59:27.623Z,27.50
2022-11-19T14:01:56.213Z,37.20
2022-11-19T14:04:36.549Z,32.30
2022-11-19T14:07:13.770Z,38.30
2022-11-19T14:09:54.115Z,24.50
2022-11-19T14:12:35.607Z,22.50
2022-11-19T14:15:41.127Z,40.30
2022-11-19T14:18:39.352Z,28.60
2022-11-19T14:21:41.447Z,32.00
2022-11-19T14:24:47.971Z,33.80
2022-11-19T14:27:18.894Z,115.90
2022-11-19T14:29:46.553Z,82.30
2022-11-19T14:32:14.309Z,75.50
2022-11-19T14:34:44.857Z,46.00
2022-11-19T14:37:21.899Z,32.00
2022-11-19T14:40:00.265Z,43.70
2022-11-19T14:42:28.054Z,72.70
2022-11-19T14:45:02.972Z,67.10
2022-11-19T14:47:36.655Z,52.60
2022-11-19T14:50:09.037Z,26.60
2022-11-19T14:52:50.430Z,27.50
2022-11-19T14:55:32.816Z,23.10
2022-11-19T14:58:07.778Z,32.20
2022-11-19T15:00:55.659Z,37.10
2022-11-19T15:03:26.649Z,27.30
2022-11-19T15:05:54.423Z,30.10
2022-11-19T15:08:22.225Z,24.90
2022-11-19T15:11:06.366Z,32.70
2022-11-19T15:13:41.537Z,38.20
2022-11-19T15:16:18.558Z,35.80
2022-11-19T15:18:47.703Z,20.30
2022-11-19T15:21:27.555Z,15.20
2022-11-19T15:24:07.806Z,17.20
2022-11-19T15:26:54.701Z,22.20
2022-11-19T15:29:42.130Z,16.30
2022-11-19T15:32:10.011Z,19.40
2022-11-19T15:35:12.939Z,16.20
2022-11-19T15:37:51.394Z,14.00
2022-11-19T15:40:21.201Z,21.00
2022-11-19T15:42:57.388Z,32.00
2022-11-19T15:45:25.878Z,22.60
2022-11-19T15:47:59.069Z,23.30
2022-11-19T15:50:28.315Z,17.40
2022-11-19T15:53:22.259Z,25.20
2022-11-19T15:55:56.138Z,27.30
2022-11-19T16:00:54.805Z,20.40
2022-11-19T16:03:23.527Z,19.30
2022-11-19T16:06:09.037Z,23.60
2022-11-19T16:08:37.961Z,17.70
2022-11-19T16:11:24.908Z,18.20
2022-11-19T16:14:12.274Z,19.00
2022-11-19T16:16:59.038Z,22.00
2022-11-19T16:19:26.938Z,19.80
2022-11-19T16:21:57.612Z,23.70
2022-11-19T16:24:45.255Z,24.20
2022-11-19T16:27:18.559Z,21.70
2022-11-19T16:29:46.750Z,37.60
2022-11-19T16:32:16.966Z,25.30
2022-11-19T16:34:45.242Z,20.60
2022-11-19T16:37:14.082Z,22.30
2022-11-19T16:39:43.143Z,17.70
2022-11-19T16:42:18.466Z,23.20
2022-11-19T16:45:04.864Z,29.40
2022-11-19T16:47:35.717Z,23.00
2022-11-19T16:50:06.673Z,22.70
2022-11-19T16:52:34.543Z,27.50
2022-11-19T16:55:03.990Z,25.70
2022-11-19T16:57:32.231Z,25.30
2022-11-19T16:59:59.968Z,26.90
2022-11-19T17:02:31.816Z,29.70
2022-11-19T17:05:05.557Z,39.10
2022-11-19T17:07:33.855Z,36.30
2022-11-19T17:10:09.410Z,39.60
2022-11-19T17:12:38.340Z,32.30
2022-11-19T17:15:25.270Z,37.60
2022-11-19T17:17:53.366Z,34.20
2022-11-19T17:20:27.567Z,32.60
2022-11-19T17:22:56.066Z,38.40
2022-11-19T17:25:24.761Z,43.00
2022-11-19T17:27:54.485Z,38.40
2022-11-19T17:30:27.277Z,37.70
2022-11-19T17:33:00.821Z,40.40
2022-11-19T17:35:49.232Z,41.80
2022-11-19T17:38:25.081Z,45.30
2022-11-19T17:40:53.972Z,33.90
2022-11-19T17:43:54.294Z,31.10
2022-11-19T17:46:23.043Z,29.50
2022-11-19T17:48:51.119Z,28.00
2022-11-19T17:51:20.536Z,45.10
2022-11-19T17:53:49.436Z,31.30
2022-11-19T17:56:29.385Z,39.80
2022-11-19T17:58:59.666Z,30.60
2022-11-19T18:01:27.609Z,35.50
2022-11-19T18:03:55.396Z,38.40
2022-11-19T18:06:23.358Z,29.30
2022-11-19T18:08:51.258Z,32.60
2022-11-19T18:11:20.938Z,26.80
2022-11-19T18:13:49.820Z,29.50
2022-11-19T18:16:19.140Z,35.00
2022-11-19T18:18:47.004Z,30.50
2022-11-19T18:21:16.136Z,38.80
2022-11-19T18:23:44.758Z,35.20
2022-11-19T18:26:20.003Z,33.00
2022-11-19T18:28:49.268Z,35.00
2022-11-19T18:31:17.369Z,33.80
2022-11-19T18:33:48.123Z,45.10
2022-11-19T18:36:16.449Z,36.80
2022-11-19T18:38:52.229Z,38.90
2022-11-19T18:41:20.085Z,41.50
2022-11-19T18:44:06.710Z,49.60
2022-11-19T18:46:34.638Z,44.30
2022-11-19T18:49:02.475Z,44.80
2022-11-19T18:51:31.189Z,47.90
2022-11-19T18:53:59.093Z,60.40
2022-11-19T18:56:27.175Z,47.80
2022-11-19T18:58:57.209Z,52.60
2022-11-19T19:01:28.492Z,54.10
2022-11-19T19:03:56.852Z,44.80
2022-11-19T19:06:25.649Z,35.30
2022-11-19T19:08:53.486Z,39.90
2022-11-19T19:11:40.418Z,44.10
2022-11-19T19:14:12.301Z,39.30
2022-11-19T19:16:41.644Z,32.20
2022-11-19T19:19:10.370Z,43.20
2022-11-19T19:21:38.218Z,46.60
2022-11-19T19:24:06.085Z,58.50
2022-11-19T19:26:33.912Z,52.40
2022-11-19T19:29:02.284Z,80.10
2022-11-19T19:31:30.616Z,61.70
2022-11-19T19:33:58.772Z,45.60
2022-11-19T19:36:27.255Z,47.00
2022-11-19T19:38:55.211Z,50.80
2022-11-19T19:41:25.627Z,57.80
2022-11-19T19:43:54.305Z,65.40
2022-11-19T19:46:22.921Z,73.10
2022-11-19T19:49:03.662Z,61.90
2022-11-19T19:51:38.581Z,52.60
2022-11-19T19:54:06.547Z,54.10
2022-11-19T19:56:34.511Z,56.10
2022-11-19T19:59:02.776Z,42.40
2022-11-19T20:01:32.161Z,45.40
2022-11-19T20:04:20.005Z,62.40
2022-11-19T20:06:47.967Z,53.00
2022-11-19T20:09:16.109Z,43.30
2022-11-19T20:11:44.569Z,47.40
2022-11-19T20:14:12.359Z,58.80
2022-11-19T20:16:41.774Z,60.00
2022-11-19T20:19:12.578Z,56.90
2022-11-19T20:21:40.312Z,61.90
2022-11-19T20:24:12.912Z,63.10
2022-11-19T20:26:42.289Z,51.10
2022-11-19T20:29:11.364Z,55.30
2022-11-19T20:31:39.916Z,55.80
2022-11-19T20:34:07.715Z,58.70
2022-11-19T20:36:36.180Z,55.20
2022-11-19T20:39:07.942Z,50.60
2022-11-19T20:42:01.656Z,46.40
2022-11-19T20:44:36.745Z,73.40
2022-11-19T20:47:11.731Z,48.50
2022-11-19T20:49:52.177Z,55.30
2022-11-19T20:52:31.674Z,50.40
2022-11-19T20:55:03.719Z,51.50
2022-11-19T20:57:34.553Z,72.90
2022-11-19T21:00:23.492Z,53.10
2022-11-19T21:02:51.815Z,69.90
2022-11-19T21:05:20.309Z,70.90
2022-11-19T21:07:48.660Z,59.70
2022-11-19T21:10:16.693Z,48.30
2022-11-19T21:13:01.862Z,47.90
2022-11-19T21:15:34.746Z,50.00
2022-11-19T21:18:02.794Z,41.00
2022-11-19T21:20:31.541Z,38.40
2022-11-19T21:22:59.400Z,55.80
2022-11-19T21:25:31.875Z,46.40
2022-11-19T21:27:59.589Z,65.30
2022-11-19T21:30:27.273Z,57.00
2022-11-19T21:32:55.384Z,66.30
2022-11-19T21:35:25.520Z,64.80
2022-11-19T21:37:53.373Z,58.40
2022-11-19T21:40:21.855Z,61.30
2022-11-19T21:42:50.711Z,56.00
2022-11-19T21:45:18.926Z,56.50
2022-11-19T21:47:46.840Z,46.60
2022-11-19T21:50:15.393Z,45.70
2022-11-19T21:52:44.244Z,54.80
2022-11-19T21:55:12.076Z,49.30
2022-11-19T21:57:39.821Z,60.30
2022-11-19T22:00:08.654Z,45.50
2022-11-19T22:02:41.069Z,56.10
2022-11-19T22:05:09.081Z,45.90
2022-11-19T22:07:37.042Z,100.60
2022-11-19T22:10:05.559Z,67.50
2022-11-19T22:12:33.434Z,84.80
2022-11-19T22:15:01.424Z,61.90
2022-11-19T22:17:33.016Z,73.60
2022-11-19T22:20:01.250Z,51.50
2022-11-19T22:22:29.276Z,57.80
2022-11-19T22:24:57.714Z,56.80
2022-11-19T22:27:25.471Z,44.40
2022-11-19T22:29:56.546Z,47.20
2022-11-19T22:32:24.547Z,46.10
2022-11-19T22:34:52.572Z,41.90
2022-11-19T22:37:26.870Z,44.60
2022-11-19T22:39:55.150Z,45.70
2022-11-19T22:42:22.928Z,45.90
2022-11-19T22:44:51.221Z,58.10
2022-11-19T22:47:19.135Z,56.60
2022-11-19T22:49:46.929Z,51.30
2022-11-19T22:52:18.627Z,55.30
2022-11-19T22:54:46.463Z,48.30
2022-11-19T22:57:14.234Z,45.00
2022-11-19T22:59:46.093Z,56.70
2022-11-19T23:02:13.853Z,42.80
2022-11-19T23:04:41.715Z,59.30
2022-11-19T23:07:09.731Z,106.10
2022-11-19T23:09:37.621Z,72.10
2022-11-19T23:12:24.321Z,65.40
2022-11-19T23:14:56.148Z,51.80
2022-11-19T23:17:23.980Z,74.90
2022-11-19T23:19:51.658Z,62.40
2022-11-19T23:22:19.611Z,54.10
2022-11-19T23:24:47.385Z,57.00
2022-11-19T23:27:19.338Z,55.10
2022-11-19T23:29:49.899Z,55.40
2022-11-19T23:32:17.719Z,55.00
2022-11-19T23:34:45.630Z,61.70
2022-11-19T23:37:23.797Z,54.70
2022-11-19T23:39:51.878Z,58.50
2022-11-19T23:42:20.473Z,50.70
2022-11-19T23:44:48.273Z,51.30
2022-11-19T23:47:16.743Z,59.10
2022-11-19T23:49:44.492Z,49.80
2022-11-19T23:52:12.279Z,53.20
2022-11-19T23:54:40.017Z,52.30
2022-11-19T23:57:08.008Z,53.40
2022-11-19T23:59:35.859Z,53.60
